createdAt,value
2023-02-07T00:01:06.897Z,-1.20
2023-02-07T00:03:33.564Z,-1.30
2023-02-07T00:06:07.935Z,-1.30
2023-02-07T00:08:34.680Z,-1.30
2023-02-07T00:11:08.481Z,-1.30
2023-02-07T00:13:35.727Z,-1.40
2023-02-07T00:16:03.429Z,-1.40
2023-02-07T00:18:30.203Z,-1.40
2023-02-07T00:21:00.001Z,-1.40
2023-02-07T00:23:26.875Z,-1.40
2023-02-07T00:25:53.573Z,-1.40
2023-02-07T00:28:20.413Z,-1.40
2023-02-07T00:30:47.615Z,-1.40
2023-02-07T00:33:14.686Z,-1.40
2023-02-07T00:35:41.466Z,-1.40
2023-02-07T00:38:08.302Z,-1.40
2023-02-07T00:40:34.977Z,-1.50
2023-02-07T00:43:01.632Z,-1.50
2023-02-07T00:45:28.308Z,-1.50
2023-02-07T00:47:54.978Z,-1.50
2023-02-07T00:50:21.643Z,-1.50
2023-02-07T00:52:48.327Z,-1.50
2023-02-07T00:55:15.028Z,-1.50
2023-02-07T00:57:41.736Z,-1.50
2023-02-07T01:00:10.886Z,-1.50
2023-02-07T01:02:37.626Z,-1.50
2023-02-07T01:05:04.392Z,-1.60
2023-02-07T01:07:31.171Z,-1.60
2023-02-07T01:09:57.855Z,-1.60
2023-02-07T01:12:24.551Z,-1.60
2023-02-07T01:14:51.246Z,-1.60
2023-02-07T01:17:17.973Z,-1.60
2023-02-07T01:19:44.739Z,-1.60
2023-02-07T01:22:11.473Z,-1.60
2023-02-07T01:24:38.154Z,-1.60
2023-02-07T01:27:04.818Z,-1.60
2023-02-07T01:29:31.427Z,-1.60
2023-02-07T01:31:58.127Z,-1.60
2023-02-07T01:34:24.890Z,-1.60
2023-02-07T01:36:51.544Z,-1.60
2023-02-07T01:39:18.355Z,-1.60
2023-02-07T01:41:45.008Z,-1.60
2023-02-07T01:44:23.983Z,-1.60
2023-02-07T01:46:51.822Z,-1.60
2023-02-07T01:49:21.801Z,-1.60
2023-02-07T01:51:51.725Z,-1.60
2023-02-07T01:54:19.063Z,-1.60
2023-02-07T01:56:48.497Z,-1.60
2023-02-07T01:59:15.504Z,-1.60
2023-02-07T02:01:43.209Z,-1.50
2023-02-07T02:04:10.033Z,-1.60
2023-02-07T02:06:37.180Z,-1.60
2023-02-07T02:09:08.520Z,-1.70
2023-02-07T02:11:50.398Z,-1.80
2023-02-07T02:14:32.992Z,-1.80
2023-02-07T02:17:10.601Z,-1.80
2023-02-07T02:19:37.273Z,-1.70
2023-02-07T02:22:30.246Z,-1.80
2023-02-07T02:25:03.012Z,-1.80
2023-02-07T02:27:38.380Z,-1.80
2023-02-07T02:30:05.067Z,-1.80
2023-02-07T02:32:52.096Z,-1.80
2023-02-07T02:35:25.159Z,-1.90
2023-02-07T02:37:54.860Z,-1.90
2023-02-07T02:40:31.936Z,-2.00
2023-02-07T02:43:07.100Z,-1.90
2023-02-07T02:45:37.185Z,-1.90
2023-02-07T02:48:05.639Z,-2.00
2023-02-07T02:50:34.075Z,-2.00
2023-02-07T02:53:01.014Z,-2.10
2023-02-07T02:55:46.125Z,-2.00
2023-02-07T02:58:31.228Z,-2.00
2023-02-07T03:01:07.229Z,-2.10
2023-02-07T03:03:36.993Z,-2.10
2023-02-07T03:06:22.713Z,-2.10
2023-02-07T03:08:49.332Z,-2.10
2023-02-07T03:11:21.422Z,-2.10
2023-02-07T03:14:05.112Z,-2.10
2023-02-07T03:16:39.566Z,-2.10
2023-02-07T03:19:12.353Z,-2.10
2023-02-07T03:21:42.833Z,-2.10
2023-02-07T03:24:20.252Z,-2.10
2023-02-07T03:26:48.344Z,-2.10
2023-02-07T03:29:16.472Z,-2.10
2023-02-07T03:31:45.180Z,-2.10
2023-02-07T03:34:14.263Z,-2.20
2023-02-07T03:36:49.272Z,-2.20
2023-02-07T03:39:16.341Z,-2.20
2023-02-07T03:41:46.572Z,-2.20
2023-02-07T03:44:14.834Z,-2.20
2023-02-07T03:46:41.942Z,-2.30
2023-02-07T03:49:08.828Z,-2.30
2023-02-07T03:51:35.877Z,-2.40
2023-02-07T03:54:02.518Z,-2.40
2023-02-07T03:56:29.251Z,-2.40
2023-02-07T03:58:55.912Z,-2.40
2023-02-07T04:01:22.691Z,-2.40
2023-02-07T04:03:49.375Z,-2.50
2023-02-07T04:06:16.298Z,-2.50
2023-02-07T04:08:43.039Z,-2.50
2023-02-07T04:11:10.092Z,-2.40
2023-02-07T04:13:37.036Z,-2.40
2023-02-07T04:16:07.185Z,-2.50
2023-02-07T04:18:33.925Z,-2.40
2023-02-07T04:21:02.237Z,-2.40
2023-02-07T04:23:29.080Z,-2.50
2023-02-07T04:25:55.838Z,-2.50
2023-02-07T04:28:22.846Z,-2.40
2023-02-07T04:30:49.545Z,-2.40
2023-02-07T04:33:16.711Z,-2.50
2023-02-07T04:35:43.428Z,-2.50
2023-02-07T04:38:10.349Z,-2.50
2023-02-07T04:40:38.641Z,-2.50
2023-02-07T04:43:05.343Z,-2.50
2023-02-07T04:45:32.082Z,-2.60
2023-02-07T04:47:58.760Z,-2.50
2023-02-07T04:50:25.446Z,-2.50
2023-02-07T04:52:52.169Z,-2.50
2023-02-07T04:55:18.880Z,-2.60
2023-02-07T04:57:45.665Z,-2.60
2023-02-07T05:00:12.638Z,-2.60
2023-02-07T05:02:39.358Z,-2.70
2023-02-07T05:05:06.204Z,-2.70
2023-02-07T05:07:33.068Z,-2.70
2023-02-07T05:09:59.732Z,-2.60
2023-02-07T05:12:26.444Z,-2.60
2023-02-07T05:14:53.099Z,-2.60
2023-02-07T05:17:19.791Z,-2.60
2023-02-07T05:19:46.486Z,-2.60
2023-02-07T05:22:13.183Z,-2.70
2023-02-07T05:24:39.865Z,-2.70
2023-02-07T05:27:06.573Z,-2.70
2023-02-07T05:29:33.239Z,-2.70
2023-02-07T05:32:18.609Z,-2.70
2023-02-07T05:34:45.290Z,-2.70
2023-02-07T05:37:11.989Z,-2.70
2023-02-07T05:39:38.655Z,-2.70
2023-02-07T05:42:05.402Z,-2.70
2023-02-07T05:44:32.107Z,-2.70
2023-02-07T05:46:58.780Z,-2.70
2023-02-07T05:49:25.465Z,-2.70
2023-02-07T05:51:52.118Z,-2.70
2023-02-07T05:54:18.803Z,-2.70
2023-02-07T05:56:45.675Z,-2.80
2023-02-07T05:59:12.376Z,-2.80
2023-02-07T06:01:39.067Z,-2.70
2023-02-07T06:04:06.119Z,-2.70
2023-02-07T06:06:33.047Z,-2.80
2023-02-07T06:08:59.871Z,-2.80
2023-02-07T06:11:26.525Z,-2.80
2023-02-07T06:13:53.312Z,-2.80
2023-02-07T06:16:19.971Z,-2.80
2023-02-07T06:18:46.675Z,-2.80
2023-02-07T06:21:13.346Z,-2.80
2023-02-07T06:23:40.207Z,-2.80
2023-02-07T06:26:06.961Z,-2.80
2023-02-07T06:28:33.573Z,-2.80
2023-02-07T06:31:00.385Z,-2.90
2023-02-07T06:33:27.123Z,-2.90
2023-02-07T06:35:55.888Z,-2.90
2023-02-07T06:38:22.637Z,-2.90
2023-02-07T06:40:49.518Z,-2.90
2023-02-07T06:43:16.207Z,-3.00
2023-02-07T06:45:42.908Z,-3.00
2023-02-07T06:48:09.972Z,-3.00
2023-02-07T06:50:36.784Z,-2.90
2023-02-07T06:53:03.790Z,-2.90
2023-02-07T06:55:31.214Z,-2.90
2023-02-07T06:57:57.962Z,-2.90
2023-02-07T07:00:24.847Z,-2.90
2023-02-07T07:02:51.677Z,-2.80
2023-02-07T07:05:18.454Z,-2.80
2023-02-07T07:07:45.531Z,-2.80
2023-02-07T07:10:13.112Z,-2.80
2023-02-07T07:12:39.910Z,-2.80
2023-02-07T07:15:07.019Z,-2.80
2023-02-07T07:17:33.826Z,-2.80
2023-02-07T07:20:00.575Z,-2.80
2023-02-07T07:22:27.431Z,-2.70
2023-02-07T07:24:54.113Z,-2.70
2023-02-07T07:27:20.804Z,-2.80
2023-02-07T07:29:47.520Z,-2.80
2023-02-07T07:32:28.580Z,-2.70
2023-02-07T07:34:58.921Z,-2.70
2023-02-07T07:37:25.802Z,-2.70
2023-02-07T07:39:52.593Z,-2.70
2023-02-07T07:42:19.274Z,-2.60
2023-02-07T07:44:46.082Z,-2.60
2023-02-07T07:47:13.810Z,-2.60
2023-02-07T07:49:40.664Z,-2.50
2023-02-07T07:52:07.560Z,-2.50
2023-02-07T07:54:34.249Z,-2.50
2023-02-07T07:57:00.911Z,-2.40
2023-02-07T07:59:27.684Z,-2.40
2023-02-07T08:01:54.517Z,-2.30
2023-02-07T08:04:21.323Z,-2.30
2023-02-07T08:06:48.145Z,-2.30
2023-02-07T08:09:14.820Z,-2.30
2023-02-07T08:11:41.501Z,-2.20
2023-02-07T08:14:08.360Z,-2.20
2023-02-07T08:16:35.203Z,-2.20
2023-02-07T08:19:01.911Z,-2.20
2023-02-07T08:21:28.606Z,-2.10
2023-02-07T08:23:55.497Z,-2.10
2023-02-07T08:26:22.189Z,-2.10
2023-02-07T08:28:49.567Z,-2.00
2023-02-07T08:31:16.401Z,-2.00
2023-02-07T08:33:43.225Z,-1.90
2023-02-07T08:36:11.174Z,-1.80
2023-02-07T08:38:38.311Z,-1.80
2023-02-07T08:41:05.286Z,-1.70
2023-02-07T08:43:32.115Z,-1.70
2023-02-07T08:46:00.721Z,-1.60
2023-02-07T08:48:27.776Z,-1.50
2023-02-07T08:50:54.738Z,-1.50
2023-02-07T08:53:21.478Z,-1.50
2023-02-07T08:55:48.498Z,-1.40
2023-02-07T08:58:15.664Z,-1.30
2023-02-07T09:00:43.867Z,-1.30
2023-02-07T09:03:10.794Z,-1.30
2023-02-07T09:05:38.053Z,-1.20
2023-02-07T09:08:04.857Z,-1.20
2023-02-07T09:10:31.836Z,-1.20
2023-02-07T09:12:58.774Z,-1.10
2023-02-07T09:15:26.163Z,-1.10
2023-02-07T09:17:53.017Z,-1.10
2023-02-07T09:20:19.856Z,-1.00
2023-02-07T09:23:05.341Z,-1.00
2023-02-07T09:25:32.187Z,-1.00
2023-02-07T09:27:59.027Z,-0.90
2023-02-07T09:30:25.854Z,-0.90
2023-02-07T09:32:52.587Z,-0.80
2023-02-07T09:35:19.290Z,-0.80
2023-02-07T09:37:49.764Z,-0.80
2023-02-07T09:40:19.162Z,-0.80
2023-02-07T09:43:09.549Z,-0.70
2023-02-07T09:45:39.419Z,-0.70
2023-02-07T09:48:23.095Z,-0.70
2023-02-07T09:50:52.580Z,-0.70
2023-02-07T09:53:22.840Z,-0.60
2023-02-07T09:55:51.314Z,-0.60
2023-02-07T09:58:35.237Z,-0.50
2023-02-07T10:01:09.015Z,-0.50
2023-02-07T10:03:38.024Z,-0.50
2023-02-07T10:06:17.808Z,-0.40
2023-02-07T10:08:47.304Z,-0.40
2023-02-07T10:11:14.208Z,-0.40
2023-02-07T10:13:47.099Z,-0.30
2023-02-07T10:16:23.312Z,-0.30
2023-02-07T10:19:22.920Z,-0.30
2023-02-07T10:21:58.698Z,-0.20
2023-02-07T10:24:25.362Z,-0.20
2023-02-07T10:26:53.446Z,-0.20
2023-02-07T10:29:29.229Z,-0.10
2023-02-07T10:31:59.694Z,-0.10
2023-02-07T10:34:36.949Z,0.00
2023-02-07T10:37:13.355Z,0.00
2023-02-07T10:39:41.999Z,0.00
2023-02-07T10:42:12.608Z,0.10
2023-02-07T10:44:39.281Z,0.10
2023-02-07T10:47:08.870Z,0.10
2023-02-07T10:49:37.621Z,0.20
2023-02-07T10:52:23.124Z,0.20
2023-02-07T10:54:53.034Z,0.30
2023-02-07T10:57:20.502Z,0.30
2023-02-07T10:59:47.632Z,0.30
2023-02-07T11:02:23.726Z,0.40
2023-02-07T11:04:50.417Z,0.40
2023-02-07T11:07:17.062Z,0.40
2023-02-07T11:09:43.748Z,0.40
2023-02-07T11:12:28.689Z,0.40
2023-02-07T11:15:01.765Z,0.50
2023-02-07T11:17:28.541Z,0.50
2023-02-07T11:19:55.414Z,0.60
2023-02-07T11:22:24.215Z,0.60
2023-02-07T11:24:53.281Z,0.70
2023-02-07T11:27:23.817Z,0.70
2023-02-07T11:29:53.674Z,0.80
2023-02-07T11:32:23.545Z,0.80
2023-02-07T11:34:55.194Z,0.80
2023-02-07T11:37:34.469Z,0.80
2023-02-07T11:40:19.609Z,0.90
2023-02-07T11:42:50.405Z,0.90
2023-02-07T11:45:21.261Z,0.90
2023-02-07T11:47:49.194Z,0.90
2023-02-07T11:50:21.722Z,1.00
2023-02-07T11:52:55.382Z,1.00
2023-02-07T11:55:23.300Z,1.00
2023-02-07T11:57:50.095Z,1.10
2023-02-07T12:00:24.434Z,1.10
2023-02-07T12:03:05.738Z,1.10
2023-02-07T12:05:35.475Z,1.20
2023-02-07T12:08:04.625Z,1.20
2023-02-07T12:10:36.422Z,1.30
2023-02-07T12:13:23.345Z,1.30
2023-02-07T12:15:53.091Z,1.30
2023-02-07T12:18:29.592Z,1.40
2023-02-07T12:21:04.036Z,1.40
2023-02-07T12:23:49.868Z,1.40
2023-02-07T12:26:17.221Z,1.40
2023-02-07T12:29:12.371Z,1.50
2023-02-07T12:31:47.478Z,1.50
2023-02-07T12:34:30.797Z,1.50
2023-02-07T12:37:05.745Z,1.60
2023-02-07T12:39:55.731Z,1.60
2023-02-07T12:42:29.454Z,1.70
2023-02-07T12:45:00.562Z,1.70
2023-02-07T12:47:36.584Z,1.70
2023-02-07T12:50:03.200Z,1.70
2023-02-07T12:52:29.870Z,1.70
2023-02-07T12:55:12.592Z,1.70
2023-02-07T12:57:42.303Z,1.80
2023-02-07T13:00:12.306Z,1.80
2023-02-07T13:03:15.918Z,1.80
2023-02-07T13:05:51.861Z,1.80
2023-02-07T13:08:41.132Z,1.90
2023-02-07T13:11:26.647Z,1.90
2023-02-07T13:14:12.346Z,2.00
2023-02-07T13:16:45.278Z,2.00
2023-02-07T13:19:29.182Z,2.00
2023-02-07T13:22:31.074Z,2.10
2023-02-07T13:24:58.275Z,2.10
2023-02-07T13:27:27.615Z,2.20
2023-02-07T13:29:54.768Z,2.20
2023-02-07T13:32:23.158Z,2.30
2023-02-07T13:35:00.108Z,2.30
2023-02-07T13:37:35.241Z,2.40
2023-02-07T13:40:05.157Z,2.50
2023-02-07T13:42:40.828Z,2.50
2023-02-07T13:45:16.637Z,2.50
2023-02-07T13:47:43.355Z,2.50
2023-02-07T13:50:23.524Z,2.50
2023-02-07T13:52:53.660Z,2.50
2023-02-07T13:55:30.613Z,2.60
2023-02-07T13:58:15.915Z,2.60
2023-02-07T14:00:51.600Z,2.70
2023-02-07T14:03:35.194Z,2.80
2023-02-07T14:06:15.862Z,2.70
2023-02-07T14:08:43.590Z,2.70
2023-02-07T14:11:30.526Z,2.70
2023-02-07T14:14:11.659Z,2.70
2023-02-07T14:16:47.231Z,2.70
2023-02-07T14:19:14.307Z,2.60
2023-02-07T14:21:41.987Z,2.70
2023-02-07T14:24:08.967Z,2.80
2023-02-07T14:26:42.846Z,2.80
2023-02-07T14:29:18.826Z,2.80
2023-02-07T14:32:12.104Z,2.90
2023-02-07T14:34:58.584Z,2.90
2023-02-07T14:37:39.991Z,2.80
2023-02-07T14:40:08.724Z,2.90
2023-02-07T14:42:36.847Z,2.90
2023-02-07T14:45:04.763Z,2.80
2023-02-07T14:47:32.038Z,2.70
2023-02-07T14:50:00.389Z,2.70
2023-02-07T14:52:29.682Z,2.70
2023-02-07T14:55:16.845Z,2.70
2023-02-07T14:57:58.513Z,2.70
2023-02-07T15:00:34.594Z,2.70
2023-02-07T15:03:06.964Z,2.70
2023-02-07T15:05:35.635Z,2.60
2023-02-07T15:08:02.589Z,2.50
2023-02-07T15:10:35.420Z,2.40
2023-02-07T15:13:02.846Z,2.30
2023-02-07T15:15:31.278Z,2.20
2023-02-07T15:17:59.566Z,2.20
2023-02-07T15:20:34.171Z,2.10
2023-02-07T15:23:02.558Z,2.00
2023-02-07T15:25:31.388Z,2.00
2023-02-07T15:28:03.474Z,2.00
2023-02-07T15:30:30.822Z,2.00
2023-02-07T15:32:57.950Z,2.00
2023-02-07T15:35:30.262Z,1.90
2023-02-07T15:38:13.908Z,1.90
2023-02-07T15:40:41.300Z,1.90
2023-02-07T15:43:22.455Z,1.80
2023-02-07T15:45:58.362Z,1.80
2023-02-07T15:48:25.074Z,1.70
2023-02-07T15:50:53.960Z,1.70
2023-02-07T15:53:25.180Z,1.70
2023-02-07T15:55:52.202Z,1.60
2023-02-07T15:58:19.000Z,1.60
2023-02-07T16:00:47.076Z,1.50
2023-02-07T16:03:18.744Z,1.40
2023-02-07T16:05:45.884Z,1.40
2023-02-07T16:08:33.007Z,1.20
2023-02-07T16:11:11.916Z,1.20
2023-02-07T16:13:50.463Z,1.10
2023-02-07T16:16:19.942Z,1.00
2023-02-07T16:18:48.222Z,0.90
2023-02-07T16:21:17.968Z,0.90
2023-02-07T16:23:45.398Z,0.80
2023-02-07T16:26:13.039Z,0.80
2023-02-07T16:28:39.952Z,0.80
2023-02-07T16:31:06.757Z,0.70
2023-02-07T16:33:33.520Z,0.60
2023-02-07T16:36:00.312Z,0.50
2023-02-07T16:38:27.074Z,0.50
2023-02-07T16:40:53.758Z,0.50
2023-02-07T16:43:34.160Z,0.50
2023-02-07T16:46:01.568Z,0.50
2023-02-07T16:48:28.333Z,0.50
2023-02-07T16:50:55.037Z,0.40
2023-02-07T16:53:21.729Z,0.40
2023-02-07T16:55:48.477Z,0.40
2023-02-07T16:58:21.445Z,0.40
2023-02-07T17:00:48.125Z,0.40
2023-02-07T17:03:15.402Z,0.30
2023-02-07T17:05:42.174Z,0.20
2023-02-07T17:08:13.588Z,0.20
2023-02-07T17:10:41.808Z,0.00
2023-02-07T17:13:08.559Z,0.00
2023-02-07T17:15:35.703Z,0.00
2023-02-07T17:18:03.528Z,0.00
2023-02-07T17:20:31.324Z,-0.10
2023-02-07T17:22:58.391Z,0.00
2023-02-07T17:25:27.140Z,0.00
2023-02-07T17:27:54.055Z,0.00
2023-02-07T17:30:25.519Z,-0.10
2023-02-07T17:32:52.200Z,0.00
2023-02-07T17:35:20.679Z,0.00
2023-02-07T17:37:50.756Z,0.00
2023-02-07T17:40:17.413Z,0.00
2023-02-07T17:42:44.093Z,0.00
2023-02-07T17:45:10.917Z,-0.10
2023-02-07T17:47:37.561Z,-0.10
2023-02-07T17:50:04.622Z,-0.10
2023-02-07T17:52:31.325Z,-0.10
2023-02-07T17:54:57.984Z,-0.10
2023-02-07T17:57:24.686Z,-0.20
2023-02-07T17:59:51.320Z,-0.20
2023-02-07T18:02:18.057Z,-0.30
2023-02-07T18:04:44.737Z,-0.30
2023-02-07T18:07:11.413Z,-0.40
2023-02-07T18:09:38.072Z,-0.50
2023-02-07T18:12:05.853Z,-0.60
2023-02-07T18:14:32.529Z,-0.60
2023-02-07T18:16:59.225Z,-0.70
2023-02-07T18:19:25.952Z,-0.80
2023-02-07T18:21:52.615Z,-0.80
2023-02-07T18:24:19.384Z,-0.70
2023-02-07T18:26:46.450Z,-0.80
2023-02-07T18:29:13.220Z,-0.70
2023-02-07T18:31:40.025Z,-0.70
2023-02-07T18:34:06.937Z,-0.80
2023-02-07T18:36:40.226Z,-0.80
2023-02-07T18:39:07.792Z,-0.80
2023-02-07T18:41:35.360Z,-0.80
2023-02-07T18:44:03.096Z,-0.80
2023-02-07T18:46:31.839Z,-0.80
2023-02-07T18:48:58.583Z,-0.90
2023-02-07T18:51:25.274Z,-0.80
2023-02-07T18:53:52.363Z,-0.90
2023-02-07T18:56:21.245Z,-0.80
2023-02-07T19:02:11.007Z,-0.80
2023-02-07T19:04:37.967Z,-0.80
2023-02-07T19:07:06.545Z,-0.80
2023-02-07T19:09:33.449Z,-0.90
2023-02-07T19:12:00.214Z,-0.90
2023-02-07T19:14:33.263Z,-1.00
2023-02-07T19:17:00.070Z,-1.00
2023-02-07T19:19:28.685Z,-1.00
2023-02-07T19:21:55.716Z,-1.00
2023-02-07T19:24:23.600Z,-1.00
2023-02-07T19:26:51.947Z,-1.00
2023-02-07T19:29:20.826Z,-1.00
2023-02-07T19:31:47.555Z,-1.00
2023-02-07T19:34:14.446Z,-1.00
2023-02-07T19:36:41.794Z,-1.00
2023-02-07T19:39:08.601Z,-1.00
2023-02-07T19:41:35.326Z,-1.10
2023-02-07T19:44:02.078Z,-1.10
2023-02-07T19:46:29.128Z,-1.30
2023-02-07T19:48:57.113Z,-1.20
2023-02-07T19:51:25.175Z,-1.30
2023-02-07T19:53:52.109Z,-1.30
2023-02-07T19:56:19.561Z,-1.30
2023-02-07T19:58:50.378Z,-1.30
2023-02-07T20:01:17.622Z,-1.20
2023-02-07T20:03:46.256Z,-1.20
2023-02-07T20:06:13.712Z,-1.10
2023-02-07T20:08:40.962Z,-1.10
2023-02-07T20:11:08.902Z,-1.10
2023-02-07T20:13:36.536Z,-1.10
2023-02-07T20:16:07.315Z,-1.10
2023-02-07T20:18:34.469Z,-1.10
2023-02-07T20:21:14.936Z,-1.20
2023-02-07T20:23:44.187Z,-1.20
2023-02-07T20:26:14.733Z,-1.20
2023-02-07T20:28:41.863Z,-1.20
2023-02-07T20:31:09.877Z,-1.30
2023-02-07T20:33:37.569Z,-1.40
2023-02-07T20:36:04.861Z,-1.40
2023-02-07T20:38:31.754Z,-1.40
2023-02-07T20:41:15.520Z,-1.40
2023-02-07T20:43:42.996Z,-1.50
2023-02-07T20:46:12.336Z,-1.40
2023-02-07T20:48:39.693Z,-1.40
2023-02-07T20:51:10.183Z,-1.40
2023-02-07T20:53:38.036Z,-1.40
2023-02-07T20:56:09.473Z,-1.40
2023-02-07T20:58:36.185Z,-1.40
2023-02-07T21:01:10.596Z,-1.40
2023-02-07T21:03:37.621Z,-1.40
2023-02-07T21:06:05.056Z,-1.40
2023-02-07T21:08:32.079Z,-1.40
2023-02-07T21:10:59.238Z,-1.50
2023-02-07T21:13:27.290Z,-1.50
2023-02-07T21:16:02.828Z,-1.50
2023-02-07T21:18:31.084Z,-1.50
2023-02-07T21:20:58.096Z,-1.60
2023-02-07T21:23:24.931Z,-1.50
2023-02-07T21:25:53.252Z,-1.50
2023-02-07T21:28:20.165Z,-1.60
2023-02-07T21:30:47.017Z,-1.60
2023-02-07T21:33:14.026Z,-1.60
2023-02-07T21:35:40.773Z,-1.70
2023-02-07T21:38:07.524Z,-1.70
2023-02-07T21:40:34.353Z,-1.70
2023-02-07T21:43:01.222Z,-1.70
2023-02-07T21:45:28.066Z,-1.60
2023-02-07T21:47:54.853Z,-1.60
2023-02-07T21:50:21.634Z,-1.50
2023-02-07T21:52:48.464Z,-1.50
2023-02-07T21:55:15.309Z,-1.50
2023-02-07T21:57:42.029Z,-1.60
2023-02-07T22:00:10.613Z,-1.60
2023-02-07T22:02:37.770Z,-1.70
2023-02-07T22:05:04.530Z,-1.70
2023-02-07T22:07:31.230Z,-1.70
2023-02-07T22:09:57.926Z,-1.80
2023-02-07T22:12:24.627Z,-1.80
2023-02-07T22:14:51.462Z,-1.80
2023-02-07T22:17:19.108Z,-1.80
2023-02-07T22:19:45.847Z,-1.70
2023-02-07T22:22:12.546Z,-1.80
2023-02-07T22:24:39.261Z,-1.70
2023-02-07T22:27:05.947Z,-1.70
2023-02-07T22:29:32.811Z,-1.70
2023-02-07T22:31:59.655Z,-1.80
2023-02-07T22:34:26.443Z,-1.80
2023-02-07T22:36:53.150Z,-1.80
2023-02-07T22:39:20.105Z,-1.90
2023-02-07T22:41:46.794Z,-1.90
2023-02-07T22:44:13.543Z,-1.90
2023-02-07T22:46:40.260Z,-1.90
2023-02-07T22:49:07.145Z,-1.90
2023-02-07T22:51:35.483Z,-1.90
2023-02-07T22:54:05.527Z,-2.00
2023-02-07T22:56:33.149Z,-2.00
2023-02-07T22:58:59.876Z,-2.00
2023-02-07T23:01:31.314Z,-2.00
2023-02-07T23:03:58.123Z,-2.00
2023-02-07T23:06:25.628Z,-2.00
2023-02-07T23:08:52.698Z,-2.00
2023-02-07T23:11:20.086Z,-2.00
2023-02-07T23:13:46.948Z,-2.10
2023-02-07T23:16:14.734Z,-2.00
2023-02-07T23:18:41.628Z,-2.00
2023-02-07T23:21:12.024Z,-2.10
2023-02-07T23:23:39.085Z,-2.10
2023-02-07T23:26:06.975Z,-2.20
2023-02-07T23:28:33.866Z,-2.20
2023-02-07T23:31:01.010Z,-2.20
2023-02-07T23:33:27.790Z,-2.30
2023-02-07T23:35:54.515Z,-2.30
2023-02-07T23:38:21.184Z,-2.30
2023-02-07T23:40:47.867Z,-2.30
2023-02-07T23:43:14.573Z,-2.30
2023-02-07T23:45:41.293Z,-2.30
2023-02-07T23:48:08.005Z,-2.30
2023-02-07T23:50:35.131Z,-2.40
2023-02-07T23:53:01.939Z,-2.40
2023-02-07T23:55:28.678Z,-2.30
2023-02-07T23:57:55.359Z,-2.30
